Louisvale, South Africa
Current Conditions -  °F | °C
As of 1:00 AM on Thursday 23 Oct 2014 (Local Time) from FAUP Reporting Station
Clear Clear  
Wind Chill: 72°   Ceiling: Unl
Heat Index: 72°   Visibility: 6mi
Dew Point: 21°   Wind: 2mph
Humidity: 15%   Direction: 90°E
Pressure: 29.97"   Gusts: NA
Location:  28.57°S, 21.2°E
Report Text: FAUP 222300Z 09002KT CAVOK 22/M06 Q1015 NOSIG
Loading
Personal Weather Stations






























Interactive Weather Map
Tropical Storm Tracking
New forecast layout! Learn more

10-Day Weather Forecast

Advertisements
Track Severe Weather on mobile